createdAt,value
2022-08-12T00:00:53.259Z,1.38
2022-08-12T00:03:38.982Z,1.60
2022-08-12T00:06:25.733Z,1.45
2022-08-12T00:09:11.547Z,1.30
2022-08-12T00:11:56.886Z,1.50
2022-08-12T00:14:42.588Z,1.35
2022-08-12T00:17:29.229Z,1.50
2022-08-12T00:20:14.744Z,1.50
2022-08-12T00:23:00.419Z,1.40
2022-08-12T00:26:21.253Z,1.30
2022-08-12T00:29:01.865Z,1.50
2022-08-12T00:31:46.980Z,1.40
2022-08-12T00:34:34.197Z,1.35
2022-08-12T00:37:19.966Z,1.52
2022-08-12T00:40:11.014Z,1.42
2022-08-12T00:42:39.746Z,1.60
2022-08-12T00:45:08.532Z,1.33
2022-08-12T00:47:37.369Z,1.35
2022-08-12T00:50:07.950Z,1.55
2022-08-12T00:52:36.390Z,1.58
2022-08-12T00:55:06.475Z,1.40
2022-08-12T00:57:37.412Z,1.40
2022-08-12T01:00:09.608Z,1.42
2022-08-12T01:02:40.640Z,1.38
2022-08-12T01:05:29.652Z,1.58
2022-08-12T01:08:15.192Z,1.30
2022-08-12T01:11:02.059Z,1.42
2022-08-12T01:13:31.412Z,1.20
2022-08-12T01:16:00.477Z,1.60
2022-08-12T01:18:30.202Z,1.63
2022-08-12T01:21:12.968Z,1.38
2022-08-12T01:24:29.478Z,1.40
2022-08-12T01:26:53.242Z,1.70
2022-08-12T01:29:26.256Z,1.30
2022-08-12T01:32:00.727Z,1.30
2022-08-12T01:34:36.270Z,1.40
2022-08-12T01:37:07.274Z,1.58
2022-08-12T01:39:36.982Z,1.47
2022-08-12T01:42:09.563Z,1.30
2022-08-12T01:44:38.647Z,1.63
2022-08-12T01:47:12.814Z,1.30
2022-08-12T01:49:52.232Z,1.40
2022-08-12T01:52:30.736Z,1.73
2022-08-12T01:55:01.158Z,1.50
2022-08-12T01:57:57.619Z,1.63
2022-08-12T02:00:44.902Z,1.30
2022-08-12T02:04:03.426Z,1.90
2022-08-12T02:06:52.874Z,1.50
2022-08-12T02:09:42.753Z,1.43
2022-08-12T02:12:15.750Z,1.73
2022-08-12T02:14:52.852Z,1.50
2022-08-12T02:17:55.674Z,1.60
2022-08-12T02:20:35.350Z,1.53
2022-08-12T02:23:20.318Z,1.27
2022-08-12T02:25:48.897Z,1.27
2022-08-12T02:28:16.869Z,1.40
2022-08-12T02:30:46.323Z,1.57
2022-08-12T02:33:15.005Z,1.70
2022-08-12T02:35:42.985Z,1.30
2022-08-12T02:38:12.584Z,1.50
2022-08-12T02:40:45.486Z,1.57
2022-08-12T02:43:17.392Z,1.60
2022-08-12T02:45:51.375Z,1.47
2022-08-12T02:48:23.225Z,1.50
2022-08-12T02:50:54.040Z,1.40
2022-08-12T02:53:22.316Z,1.40
2022-08-12T02:55:50.450Z,1.40
2022-08-12T02:58:19.814Z,1.67
2022-08-12T03:00:49.800Z,1.50
2022-08-12T03:03:20.691Z,1.53
2022-08-12T03:05:52.439Z,1.70
2022-08-12T03:08:32.736Z,1.37
2022-08-12T03:11:04.614Z,1.50
2022-08-12T03:13:36.640Z,1.57
2022-08-12T03:16:07.682Z,1.40
2022-08-12T03:18:36.397Z,1.50
2022-08-12T03:21:04.860Z,1.37
2022-08-12T03:23:32.875Z,1.60
2022-08-12T03:26:02.419Z,1.50
2022-08-12T03:28:51.842Z,1.60
2022-08-12T03:31:24.626Z,1.60
2022-08-12T03:34:01.778Z,1.70
2022-08-12T03:36:33.562Z,1.60
2022-08-12T03:39:16.752Z,1.60
2022-08-12T03:41:51.224Z,1.70
2022-08-12T03:44:42.219Z,1.57
2022-08-12T03:47:33.243Z,1.87
2022-08-12T03:50:19.005Z,1.50
2022-08-12T03:53:04.538Z,1.50
2022-08-12T03:55:49.766Z,1.43
2022-08-12T03:58:35.559Z,1.63
2022-08-12T04:01:03.680Z,1.60
2022-08-12T04:03:50.765Z,1.53
2022-08-12T04:06:34.533Z,1.50
2022-08-12T04:09:16.051Z,1.50
2022-08-12T04:12:15.124Z,1.40
2022-08-12T04:14:43.140Z,1.60
2022-08-12T04:17:12.026Z,1.30
2022-08-12T04:19:41.390Z,1.50
2022-08-12T04:22:09.953Z,1.50
2022-08-12T04:24:40.773Z,1.73
2022-08-12T04:27:10.844Z,1.57
2022-08-12T04:30:30.099Z,1.50
2022-08-12T04:32:27.607Z,1.50
2022-08-12T04:34:57.140Z,1.73
2022-08-12T04:37:25.098Z,1.60
2022-08-12T04:39:54.140Z,1.60
2022-08-12T04:42:23.838Z,1.80
2022-08-12T04:44:51.872Z,1.80
2022-08-12T04:47:21.306Z,2.00
2022-08-12T04:49:49.312Z,1.33
2022-08-12T04:52:19.066Z,1.20
2022-08-12T04:54:47.953Z,1.60
2022-08-12T04:57:16.106Z,1.40
2022-08-12T04:59:47.731Z,1.80
2022-08-12T05:02:21.455Z,1.57
2022-08-12T05:04:51.088Z,1.63
2022-08-12T05:07:20.561Z,1.47
2022-08-12T05:09:59.829Z,1.60
2022-08-12T05:12:34.345Z,1.40
2022-08-12T05:15:02.493Z,1.50
2022-08-12T05:17:30.476Z,1.50
2022-08-12T05:19:59.880Z,1.87
2022-08-12T05:22:30.106Z,1.53
2022-08-12T05:24:58.159Z,1.80
2022-08-12T05:27:28.291Z,1.30
2022-08-12T05:30:05.362Z,1.50
2022-08-12T05:32:37.588Z,1.60
2022-08-12T05:35:08.249Z,1.87
2022-08-12T05:37:37.614Z,1.87
2022-08-12T05:40:11.043Z,1.80
2022-08-12T05:42:39.585Z,1.60
2022-08-12T05:45:09.126Z,1.80
2022-08-12T05:47:53.399Z,1.70
2022-08-12T05:50:22.427Z,1.40
2022-08-12T05:52:53.002Z,1.80
2022-08-12T05:55:25.885Z,1.83
2022-08-12T05:57:56.689Z,1.53
2022-08-12T06:00:26.004Z,1.57
2022-08-12T06:02:56.501Z,1.57
2022-08-12T06:05:24.696Z,1.90
2022-08-12T06:08:01.836Z,1.80
2022-08-12T06:10:32.930Z,1.70
2022-08-12T06:13:02.592Z,1.73
2022-08-12T06:15:31.606Z,1.90
2022-08-12T06:18:11.555Z,2.47
2022-08-12T06:20:43.419Z,1.40
2022-08-12T06:23:15.401Z,1.67
2022-08-12T06:25:43.666Z,2.10
2022-08-12T06:28:17.856Z,1.97
2022-08-12T06:31:02.656Z,1.83
2022-08-12T06:33:55.827Z,1.90
2022-08-12T06:36:29.904Z,1.97
2022-08-12T06:42:33.068Z,2.00
2022-08-12T06:45:01.727Z,1.97
2022-08-12T06:47:29.787Z,1.50
2022-08-12T06:49:58.007Z,2.10
2022-08-12T06:52:26.216Z,1.87
2022-08-12T06:54:55.847Z,1.77
2022-08-12T06:58:05.701Z,1.57
2022-08-12T07:00:16.879Z,1.73
2022-08-12T07:02:46.400Z,1.63
2022-08-12T07:05:14.401Z,1.70
2022-08-12T07:07:42.602Z,1.83
2022-08-12T07:10:12.809Z,1.70
2022-08-12T07:12:40.978Z,2.40
2022-08-12T07:15:10.192Z,2.28
2022-08-12T07:17:38.329Z,1.90
2022-08-12T07:20:09.995Z,2.00
2022-08-12T07:22:41.899Z,2.30
2022-08-12T07:25:29.621Z,2.75
2022-08-12T07:28:16.452Z,2.88
2022-08-12T07:30:46.244Z,2.50
2022-08-12T07:33:16.938Z,2.55
2022-08-12T07:35:48.035Z,2.20
2022-08-12T07:38:29.914Z,2.33
2022-08-12T07:41:03.370Z,2.30
2022-08-12T07:43:32.967Z,2.25
2022-08-12T07:46:02.595Z,2.47
2022-08-12T07:48:37.069Z,2.30
2022-08-12T07:51:05.747Z,1.90
2022-08-12T07:53:50.176Z,2.10
2022-08-12T07:56:27.522Z,2.25
2022-08-12T07:58:59.499Z,2.08
2022-08-12T08:01:28.286Z,1.80
2022-08-12T08:04:18.734Z,2.15
2022-08-12T08:06:48.533Z,2.10
2022-08-12T08:09:18.441Z,2.08
2022-08-12T08:12:05.507Z,1.92
2022-08-12T08:14:34.312Z,1.90
2022-08-12T08:17:08.703Z,2.10
2022-08-12T08:20:03.252Z,2.28
2022-08-12T08:22:41.660Z,2.80
2022-08-12T08:25:35.192Z,2.30
2022-08-12T08:28:04.892Z,2.08
2022-08-12T08:30:38.357Z,2.20
2022-08-12T08:33:24.546Z,2.10
2022-08-12T08:35:57.434Z,1.70
2022-08-12T08:38:33.304Z,2.05
2022-08-12T08:42:16.428Z,2.10
2022-08-12T08:44:28.693Z,1.90
2022-08-12T08:46:56.836Z,2.30
2022-08-12T08:49:34.348Z,2.38
2022-08-12T08:52:12.781Z,1.90
2022-08-12T08:55:01.045Z,2.20
2022-08-12T08:57:44.153Z,2.10
2022-08-12T09:00:17.785Z,1.95
2022-08-12T09:02:58.564Z,2.10
2022-08-12T09:06:01.540Z,1.90
2022-08-12T09:08:26.808Z,2.15
2022-08-12T09:10:59.908Z,1.90
2022-08-12T09:14:11.823Z,1.90
2022-08-12T09:16:30.029Z,2.20
2022-08-12T09:19:37.125Z,2.10
2022-08-12T09:22:29.271Z,2.03
2022-08-12T09:26:04.290Z,2.05
2022-08-12T09:32:03.373Z,2.00
2022-08-12T09:34:42.425Z,2.17
2022-08-12T09:37:19.949Z,2.00
2022-08-12T09:40:04.631Z,2.25
2022-08-12T09:43:16.072Z,1.85
2022-08-12T09:48:36.245Z,2.03
2022-08-12T09:51:22.468Z,1.75
2022-08-12T09:54:33.488Z,2.08
2022-08-12T09:58:59.037Z,1.77
2022-08-12T10:01:15.438Z,1.90
2022-08-12T10:04:23.691Z,2.42
2022-08-12T10:10:27.011Z,2.10
2022-08-12T10:13:41.128Z,2.03
2022-08-12T10:19:51.943Z,1.60
2022-08-12T10:22:40.934Z,2.10
2022-08-12T10:26:37.469Z,2.05
2022-08-12T10:38:43.800Z,1.60
2022-08-12T10:41:57.994Z,2.10
2022-08-12T10:45:17.043Z,1.73
2022-08-12T10:48:21.401Z,1.60
2022-08-12T10:52:04.401Z,1.63
2022-08-12T11:04:18.021Z,1.70
2022-08-12T11:07:02.017Z,1.80
2022-08-12T11:08:34.868Z,1.70
2022-08-12T11:10:50.152Z,1.98
2022-08-12T11:13:20.542Z,1.83
2022-08-12T11:16:22.672Z,1.90
2022-08-12T11:19:03.007Z,1.90
2022-08-12T11:21:51.400Z,1.98
2022-08-12T11:25:11.527Z,1.90
2022-08-12T11:27:51.569Z,1.80
2022-08-12T11:31:13.986Z,2.00
2022-08-12T11:34:05.048Z,2.00
2022-08-12T11:44:34.986Z,1.63
2022-08-12T11:52:26.517Z,1.83
2022-08-12T11:55:25.721Z,1.75
2022-08-12T12:02:03.066Z,1.60
2022-08-12T12:17:38.076Z,1.60
2022-08-12T12:19:15.888Z,1.60
2022-08-12T12:22:33.529Z,1.92
2022-08-12T12:26:07.461Z,1.80
2022-08-12T12:29:01.065Z,1.83
2022-08-12T12:32:09.440Z,1.70
2022-08-12T12:34:30.399Z,2.25
2022-08-12T12:37:02.828Z,1.88
2022-08-12T12:39:54.883Z,1.80
2022-08-12T12:42:43.040Z,1.80
2022-08-12T12:45:19.684Z,1.90
2022-08-12T12:48:10.771Z,1.88
2022-08-12T12:50:55.021Z,2.10
2022-08-12T12:54:08.639Z,1.67
2022-08-12T12:56:17.151Z,1.77
2022-08-12T12:58:49.814Z,1.90
2022-08-12T13:01:26.909Z,1.80
2022-08-12T13:04:02.123Z,1.65
2022-08-12T13:06:30.765Z,1.80
2022-08-12T13:09:02.667Z,1.85
2022-08-12T13:11:41.358Z,1.67
2022-08-12T13:14:27.913Z,1.70
2022-08-12T13:16:58.527Z,1.70
2022-08-12T13:19:36.676Z,1.90
2022-08-12T13:22:20.086Z,1.73
2022-08-12T13:24:54.567Z,1.77
2022-08-12T13:27:22.960Z,1.75
2022-08-12T13:30:03.884Z,1.70
2022-08-12T13:32:32.330Z,1.98
2022-08-12T13:35:04.012Z,1.77
2022-08-12T13:37:43.653Z,2.03
2022-08-12T13:40:21.124Z,2.17
2022-08-12T13:42:57.770Z,2.00
2022-08-12T13:45:29.082Z,2.10
2022-08-12T13:47:58.345Z,1.98
2022-08-12T13:50:32.608Z,1.83
2022-08-12T13:53:24.223Z,1.75
2022-08-12T13:56:01.921Z,1.83
2022-08-12T13:58:40.863Z,1.65
2022-08-12T14:01:20.635Z,2.50
2022-08-12T14:03:56.593Z,1.98
2022-08-12T14:06:32.065Z,2.10
2022-08-12T14:09:00.716Z,1.90
2022-08-12T14:15:08.172Z,2.00
2022-08-12T14:17:52.278Z,2.10
2022-08-12T14:20:27.791Z,1.90
2022-08-12T14:24:01.587Z,2.05
2022-08-12T14:26:21.503Z,2.10
2022-08-12T14:29:04.324Z,2.47
2022-08-12T14:31:37.719Z,1.73
2022-08-12T14:38:01.712Z,2.00
2022-08-12T14:40:18.833Z,1.95
2022-08-12T14:43:01.580Z,1.90
2022-08-12T14:46:01.926Z,1.70
2022-08-12T14:48:50.728Z,1.90
2022-08-12T14:52:44.146Z,1.92
2022-08-12T14:57:20.120Z,2.00
2022-08-12T15:03:06.331Z,1.75
2022-08-12T15:06:03.554Z,2.00
2022-08-12T15:08:52.543Z,2.25
2022-08-12T15:11:54.842Z,2.38
2022-08-12T15:15:08.275Z,2.22
2022-08-12T15:17:47.682Z,1.90
2022-08-12T15:20:32.507Z,2.10
2022-08-12T15:23:17.698Z,2.30
2022-08-12T15:26:02.483Z,2.13
2022-08-12T15:28:32.842Z,1.95
2022-08-12T15:31:02.442Z,1.80
2022-08-12T15:33:44.800Z,1.90
2022-08-12T15:36:16.885Z,1.90
2022-08-12T15:38:47.710Z,1.80
2022-08-12T15:41:23.649Z,1.80
2022-08-12T15:44:36.543Z,1.80
2022-08-12T15:46:41.335Z,1.70
2022-08-12T15:49:17.141Z,1.88
2022-08-12T15:51:58.601Z,1.70
2022-08-12T15:54:34.644Z,1.90
2022-08-12T15:57:08.219Z,1.70
2022-08-12T16:00:02.346Z,2.03
2022-08-12T16:02:29.910Z,1.95
2022-08-12T16:06:10.297Z,1.80
2022-08-12T16:08:03.217Z,1.55
2022-08-12T16:10:32.044Z,1.98
2022-08-12T16:13:13.130Z,2.00
2022-08-12T16:15:51.207Z,1.60
2022-08-12T16:18:31.019Z,1.70
2022-08-12T16:21:51.882Z,1.70
2022-08-12T16:24:28.274Z,1.77
2022-08-12T16:26:57.977Z,1.73
2022-08-12T16:29:52.519Z,1.50
2022-08-12T16:32:24.050Z,1.70
2022-08-12T16:34:58.093Z,1.80
2022-08-12T16:38:49.933Z,1.75
2022-08-12T16:41:20.167Z,1.63
2022-08-12T16:43:49.138Z,1.67
2022-08-12T16:46:31.468Z,1.75
2022-08-12T16:49:04.207Z,2.00
2022-08-12T16:51:40.697Z,1.60
2022-08-12T16:54:14.133Z,1.77
2022-08-12T16:56:51.132Z,1.90
2022-08-12T16:59:53.399Z,1.50
2022-08-12T17:02:33.829Z,1.45
2022-08-12T17:05:04.842Z,1.70
2022-08-12T17:07:43.819Z,1.70
2022-08-12T17:10:36.027Z,1.52
2022-08-12T17:13:09.912Z,1.60
2022-08-12T17:15:57.137Z,1.60
2022-08-12T17:18:42.902Z,1.80
2022-08-12T17:21:17.302Z,1.73
2022-08-12T17:23:53.431Z,1.83
2022-08-12T17:26:30.853Z,1.75
2022-08-12T17:29:00.279Z,1.90
2022-08-12T17:32:01.338Z,2.25
2022-08-12T17:34:33.465Z,1.80
2022-08-12T17:37:05.124Z,2.30
2022-08-12T17:40:14.937Z,1.58
2022-08-12T17:42:32.890Z,1.88
2022-08-12T17:45:17.959Z,2.00
2022-08-12T17:48:04.945Z,1.73
2022-08-12T17:50:39.660Z,1.75
2022-08-12T17:53:10.164Z,1.70
2022-08-12T17:55:47.386Z,1.40
2022-08-12T17:58:17.482Z,1.60
2022-08-12T18:00:48.123Z,2.72
2022-08-12T18:04:05.586Z,1.65
2022-08-12T18:06:13.645Z,1.77
2022-08-12T18:08:53.414Z,1.75
2022-08-12T18:12:04.664Z,1.60
2022-08-12T18:14:28.616Z,1.73
2022-08-12T18:17:00.306Z,1.92
2022-08-12T18:20:03.591Z,1.85
2022-08-12T18:22:30.345Z,1.90
2022-08-12T18:25:04.237Z,1.85
2022-08-12T18:27:44.621Z,1.88
2022-08-12T18:30:20.982Z,1.85
2022-08-12T18:33:04.016Z,1.65
2022-08-12T18:35:47.719Z,2.00
2022-08-12T18:38:25.242Z,1.70
2022-08-12T18:41:11.498Z,1.83
2022-08-12T18:44:02.529Z,1.95
2022-08-12T18:46:53.345Z,1.60
2022-08-12T18:49:29.737Z,2.17
2022-08-12T18:52:04.380Z,2.17
2022-08-12T18:54:41.384Z,1.60
2022-08-12T18:57:45.809Z,2.00
2022-08-12T19:00:09.843Z,1.75
2022-08-12T19:02:39.887Z,1.70
2022-08-12T19:05:11.132Z,1.80
2022-08-12T19:07:57.713Z,1.67
2022-08-12T19:10:30.780Z,1.90
2022-08-12T19:13:23.017Z,1.95
2022-08-12T19:15:53.581Z,2.00
2022-08-12T19:18:22.221Z,1.85
2022-08-12T19:20:50.831Z,1.90
2022-08-12T19:23:20.968Z,1.98
2022-08-12T19:26:01.517Z,2.10
2022-08-12T19:28:35.442Z,1.98
2022-08-12T19:31:44.767Z,2.10
2022-08-12T19:34:56.269Z,1.65
2022-08-12T19:37:20.164Z,1.60
2022-08-12T19:40:09.151Z,2.13
2022-08-12T19:42:44.862Z,2.00
2022-08-12T19:45:16.849Z,1.95
2022-08-12T19:47:46.781Z,1.75
2022-08-12T19:50:20.323Z,2.30
2022-08-12T19:52:51.254Z,1.90
2022-08-12T19:55:21.792Z,1.92
2022-08-12T19:58:02.710Z,1.90
2022-08-12T20:00:34.686Z,1.60
2022-08-12T20:03:04.523Z,2.10
2022-08-12T20:06:04.739Z,2.10
2022-08-12T20:08:37.942Z,1.83
2022-08-12T20:12:15.109Z,1.80
2022-08-12T20:14:03.904Z,2.40
2022-08-12T20:16:52.356Z,2.30
2022-08-12T20:19:52.299Z,2.08
2022-08-12T20:22:24.254Z,1.83
2022-08-12T20:25:01.549Z,2.20
2022-08-12T20:28:03.508Z,1.70
2022-08-12T20:30:52.651Z,1.90
2022-08-12T20:33:17.478Z,2.03
2022-08-12T20:38:49.257Z,1.88
2022-08-12T20:41:22.191Z,1.80
2022-08-12T20:44:05.157Z,2.17
2022-08-12T20:46:53.367Z,1.63
2022-08-12T20:49:21.690Z,1.70
2022-08-12T20:51:56.110Z,2.08
2022-08-12T20:54:32.255Z,1.65
2022-08-12T20:57:07.463Z,1.98
2022-08-12T20:59:48.152Z,1.80
2022-08-12T21:02:24.753Z,1.98
2022-08-12T21:06:09.485Z,2.00
2022-08-12T21:08:18.567Z,2.08
2022-08-12T21:10:51.267Z,2.10
2022-08-12T21:13:20.947Z,1.70
2022-08-12T21:15:55.105Z,2.03
2022-08-12T21:18:30.574Z,2.00
2022-08-12T21:21:00.008Z,1.90
2022-08-12T21:23:30.637Z,1.83
2022-08-12T21:26:11.226Z,2.00
2022-08-12T21:28:41.580Z,2.33
2022-08-12T21:32:39.196Z,1.80
2022-08-12T21:34:17.978Z,1.90
2022-08-12T21:36:49.558Z,2.00
2022-08-12T21:39:21.826Z,2.10
2022-08-12T21:41:52.635Z,2.03
2022-08-12T21:44:32.658Z,2.08
2022-08-12T21:47:19.571Z,2.17
2022-08-12T21:49:53.851Z,2.03
2022-08-12T21:52:34.069Z,2.17
2022-08-12T21:55:03.541Z,2.30
2022-08-12T21:57:36.481Z,2.15
2022-08-12T22:00:19.874Z,2.40
2022-08-12T22:03:05.314Z,2.03
2022-08-12T22:05:57.390Z,2.00
2022-08-12T22:08:26.205Z,2.00
2022-08-12T22:10:56.286Z,1.90
2022-08-12T22:14:07.429Z,2.40
2022-08-12T22:16:13.958Z,2.03
2022-08-12T22:18:55.342Z,2.28
2022-08-12T22:21:24.963Z,2.00
2022-08-12T22:24:05.307Z,2.40
2022-08-12T22:26:37.358Z,2.00
2022-08-12T22:29:23.998Z,2.30
2022-08-12T22:32:00.509Z,2.10
2022-08-12T22:34:34.984Z,2.00
2022-08-12T22:37:19.588Z,2.00
2022-08-12T22:39:49.177Z,2.08
2022-08-12T22:42:35.309Z,2.17
2022-08-12T22:45:23.397Z,2.03
2022-08-12T22:47:54.840Z,2.17
2022-08-12T22:50:26.993Z,2.20
2022-08-12T22:53:15.473Z,2.20
2022-08-12T22:55:59.687Z,2.22
2022-08-12T22:58:34.158Z,1.98
2022-08-12T23:01:03.471Z,2.25
2022-08-12T23:03:48.391Z,2.00
2022-08-12T23:06:19.569Z,2.33
2022-08-12T23:08:49.978Z,2.38
2022-08-12T23:11:23.502Z,2.70
2022-08-12T23:13:54.718Z,2.05
2022-08-12T23:16:30.953Z,2.15
2022-08-12T23:19:10.939Z,2.03
2022-08-12T23:22:05.005Z,2.17
2022-08-12T23:24:55.416Z,2.10
2022-08-12T23:27:51.330Z,2.13
2022-08-12T23:30:25.035Z,2.28
2022-08-12T23:33:01.398Z,2.10
2022-08-12T23:35:58.789Z,2.40
2022-08-12T23:38:30.634Z,2.10
2022-08-12T23:41:05.692Z,2.10
2022-08-12T23:43:39.238Z,1.95
2022-08-12T23:46:09.997Z,1.90
2022-08-12T23:48:38.712Z,1.98
2022-08-12T23:51:22.149Z,2.10
2022-08-12T23:53:54.643Z,1.90
2022-08-12T23:56:26.051Z,1.98
2022-08-12T23:59:00.251Z,2.25
